Time;durP1;ratioP1;P1;durP2;ratioP2;P2;SDS_P1;SDS_P2;PMS_P1;PMS_P2;Temp;Humidity;BMP_temperature;BMP_pressure;BME280_temperature;BME280_humidity;BME280_pressure;Samples;Min_cycle;Max_cycle;Signal;HPM_P1;HPM_P2
2022/04/21 00:00:13;;;;;;;10.25;4.50;;;;;;;5.12;73.51;95281.16;5010714;28;24447;-74
2022/04/21 00:02:40;;;;;;;5.18;4.10;;;;;;;5.11;72.61;95277.75;5010232;28;24439;-74
2022/04/21 00:05:08;;;;;;;4.00;3.30;;;;;;;5.13;72.65;95270.84;5010321;28;24448;-74
2022/04/21 00:07:34;;;;;;;5.95;3.40;;;;;;;5.21;71.34;95267.88;5010479;28;24437;-74
2022/04/21 00:10:01;;;;;;;6.07;3.63;;;;;;;5.26;70.62;95260.78;5010036;28;25031;-74
2022/04/21 00:12:28;;;;;;;3.67;3.35;;;;;;;5.34;68.27;95259.50;5010331;28;24444;-74
2022/04/21 00:14:56;;;;;;;5.20;3.63;;;;;;;5.38;66.81;95257.59;5009922;28;24455;-74
2022/04/21 00:17:23;;;;;;;3.65;3.17;;;;;;;4.93;69.49;95261.56;5009890;28;24445;-74
2022/04/21 00:19:49;;;;;;;4.05;3.70;;;;;;;4.89;68.09;95260.00;5010468;28;24551;-73
2022/04/21 00:25:00;;;;;;;4.80;3.50;;;;;;;4.27;72.21;95258.72;5009928;28;25012;-74
2022/04/21 00:27:26;;;;;;;5.40;3.95;;;;;;;4.13;72.34;95249.09;5013373;28;24519;-75
2022/04/21 00:29:53;;;;;;;4.50;3.92;;;;;;;3.87;74.81;95252.84;5013817;28;24464;-74
2022/04/21 00:32:21;;;;;;;5.80;3.60;;;;;;;3.82;76.35;95257.31;5013984;28;24464;-74
2022/04/21 00:34:47;;;;;;;5.80;3.80;;;;;;;3.92;74.54;95247.50;5014071;28;24447;-74
2022/04/21 00:37:14;;;;;;;4.17;3.57;;;;;;;3.87;75.79;95251.09;5013447;28;24444;-74
2022/04/21 00:39:40;;;;;;;4.00;3.30;;;;;;;3.91;76.46;95249.22;5013963;28;25044;-74
2022/04/21 00:42:07;;;;;;;3.53;3.10;;;;;;;4.00;76.20;95241.13;5013762;28;25061;-74
2022/04/21 00:44:34;;;;;;;5.45;3.30;;;;;;;4.18;75.57;95247.13;5013796;28;24849;-75
2022/04/21 00:47:03;;;;;;;8.55;3.78;;;;;;;4.19;75.03;95243.69;5013477;28;24531;-74
2022/04/21 00:49:32;;;;;;;8.25;3.60;;;;;;;4.37;75.21;95241.97;5013416;28;24510;-74
2022/04/21 00:52:01;;;;;;;5.03;3.60;;;;;;;4.42;74.22;95234.94;5013351;28;25027;-74
2022/04/21 00:54:31;;;;;;;4.72;3.65;;;;;;;4.43;73.90;95241.72;5013769;28;24463;-74
2022/04/21 00:57:00;;;;;;;3.80;3.00;;;;;;;4.41;73.47;95234.97;5013380;28;24435;-74
2022/04/21 00:59:27;;;;;;;4.68;3.30;;;;;;;4.46;71.41;95231.31;5013551;28;24438;-74
2022/04/21 01:04:39;;;;;;;5.78;4.60;;;;;;;4.32;74.93;95241.38;5013238;28;24971;-74
2022/04/21 01:07:08;;;;;;;8.70;6.78;;;;;;;4.34;75.49;95237.84;5013433;28;25024;-74
2022/04/21 01:09:35;;;;;;;7.10;4.50;;;;;;;4.53;73.26;95235.25;5012954;28;25156;-74
2022/04/21 01:12:01;;;;;;;6.53;3.50;;;;;;;4.59;71.04;95234.94;5012956;28;24996;-74
2022/04/21 01:14:28;;;;;;;4.15;3.38;;;;;;;4.23;72.66;95244.38;5013016;28;24432;-74
2022/04/21 01:16:54;;;;;;;15.55;3.47;;;;;;;4.11;73.23;95244.03;4997540;28;24448;-74
2022/04/21 01:19:21;;;;;;;3.97;3.20;;;;;;;3.92;73.38;95237.25;5013318;28;24432;-74
2022/04/21 01:21:48;;;;;;;3.13;2.80;;;;;;;3.78;75.52;95238.72;5013296;28;24436;-74
2022/04/21 01:24:15;;;;;;;4.40;3.10;;;;;;;3.71;76.00;95234.75;5013068;28;24436;-74
2022/04/21 01:26:42;;;;;;;3.92;3.05;;;;;;;3.68;75.57;95241.75;5013044;28;24443;-74
2022/04/21 01:29:09;;;;;;;4.23;3.57;;;;;;;3.62;76.00;95237.72;5012870;28;24552;-74
2022/04/21 01:31:35;;;;;;;4.30;3.47;;;;;;;3.66;76.86;95235.84;5012859;28;24587;-74
2022/04/21 01:34:01;;;;;;;4.50;3.40;;;;;;;3.75;76.88;95230.34;5012952;28;24484;-74
2022/04/21 01:36:28;;;;;;;6.90;3.67;;;;;;;3.76;78.45;95216.63;5012014;28;24504;-75
2022/04/21 01:41:39;;;;;;;4.88;3.83;;;;;;;3.86;78.63;95210.19;5012425;28;24520;-74
2022/04/21 01:44:06;;;;;;;4.03;3.00;;;;;;;3.90;79.64;95216.84;5012910;28;24444;-74
2022/04/21 01:46:33;;;;;;;5.95;3.80;;;;;;;3.96;79.50;95219.09;5012543;28;25036;-74
2022/04/21 01:49:00;;;;;;;3.88;3.47;;;;;;;3.76;80.56;95214.88;5012223;28;25004;-74
2022/04/21 01:51:26;;;;;;;4.38;3.75;;;;;;;3.71;82.79;95214.28;5012486;28;24654;-74
2022/04/21 01:53:52;;;;;;;4.03;3.70;;;;;;;3.73;82.89;95216.75;5011927;28;24508;-74
2022/04/21 01:56:21;;;;;;;7.78;4.82;;;;;;;3.79;82.13;95213.94;5012236;28;24448;-74
2022/04/21 01:58:47;;;;;;;7.55;4.75;;;;;;;3.87;81.57;95206.72;5012089;28;24463;-74
2022/04/21 02:01:14;;;;;;;5.95;3.35;;;;;;;4.07;73.76;95210.91;5011984;28;24429;-74
2022/04/21 02:03:40;;;;;;;3.75;3.40;;;;;;;3.93;75.37;95210.72;5012319;28;24439;-74
2022/04/21 02:06:06;;;;;;;5.55;3.70;;;;;;;3.63;78.64;95206.09;5012131;28;24433;-74
2022/04/21 02:08:33;;;;;;;4.65;3.72;;;;;;;3.24;82.79;95211.22;5012037;28;24989;-74
2022/04/21 02:11:00;;;;;;;3.92;3.33;;;;;;;3.16;83.91;95206.44;5012041;28;24448;-75
2022/04/21 02:13:27;;;;;;;5.53;3.67;;;;;;;3.23;83.84;95202.72;5011999;28;24436;-74
2022/04/21 02:15:54;;;;;;;4.80;3.90;;;;;;;3.07;86.13;95204.25;5012047;28;24433;-74
2022/04/21 02:18:20;;;;;;;4.15;3.40;;;;;;;3.31;80.22;95203.22;5011902;28;24487;-74
2022/04/21 02:20:47;;;;;;;5.32;3.30;;;;;;;3.25;79.80;95203.47;5011931;28;24444;-74
2022/04/21 02:23:13;;;;;;;4.82;3.70;;;;;;;3.24;77.60;95201.81;5011770;28;24512;-74
2022/04/21 02:25:40;;;;;;;4.43;3.78;;;;;;;3.23;79.68;95205.28;5011999;28;24458;-74
2022/04/21 02:28:08;;;;;;;4.80;4.32;;;;;;;3.40;80.34;95209.66;5011707;28;24502;-74
2022/04/21 02:30:36;;;;;;;4.85;3.70;;;;;;;3.10;81.21;95210.09;5011877;28;24503;-74
2022/04/21 02:33:03;;;;;;;4.50;3.72;;;;;;;2.98;82.44;95209.78;5011580;28;24442;-74
2022/04/21 02:35:29;;;;;;;4.13;3.72;;;;;;;2.73;84.36;95209.97;5011619;28;24490;-74
2022/04/21 02:37:55;;;;;;;4.13;3.55;;;;;;;2.71;85.88;95204.06;5011436;28;24444;-74
2022/04/21 02:40:22;;;;;;;5.18;4.13;;;;;;;2.70;86.25;95197.28;5011310;28;25051;-74
2022/04/21 02:42:48;;;;;;;5.95;4.07;;;;;;;2.78;86.20;95197.81;5011505;28;24440;-74
2022/04/21 02:45:15;;;;;;;5.10;3.80;;;;;;;2.86;87.22;95201.72;5011395;28;24981;-74
2022/04/21 02:47:45;;;;;;;7.35;3.83;;;;;;;2.90;85.76;95203.25;5011591;28;24997;-74
2022/04/21 02:50:15;;;;;;;5.05;3.63;;;;;;;3.01;86.10;95192.56;5010627;28;24846;-74
2022/04/21 02:52:42;;;;;;;4.47;3.67;;;;;;;2.97;85.97;95182.56;5011400;28;24798;-74
2022/04/21 02:57:54;;;;;;;5.05;3.63;;;;;;;3.16;85.86;95185.97;5011307;28;24443;-74
2022/04/21 03:00:21;;;;;;;5.45;3.30;;;;;;;3.23;84.63;95173.75;5010969;28;24440;-73
2022/04/21 03:02:49;;;;;;;3.90;3.50;;;;;;;3.15;83.75;95176.63;5011048;28;24807;-74
2022/04/21 03:05:15;;;;;;;4.38;2.92;;;;;;;3.23;84.45;95171.19;5011527;28;24443;-74
2022/04/21 03:07:42;;;;;;;5.30;4.18;;;;;;;3.18;85.20;95175.66;5011199;28;24483;-74
2022/04/21 03:10:09;;;;;;;4.75;3.38;;;;;;;3.25;84.02;95172.75;5010717;28;24464;-74
2022/04/21 03:12:35;;;;;;;4.70;3.60;;;;;;;3.45;77.16;95177.03;5010731;28;24443;-74
2022/04/21 03:15:02;;;;;;;6.22;3.40;;;;;;;3.13;79.97;95184.38;5011064;28;24440;-74
2022/04/21 03:17:29;;;;;;;4.60;3.70;;;;;;;3.01;81.28;95186.63;5010669;28;24428;-74
2022/04/21 03:19:57;;;;;;;4.00;3.33;;;;;;;2.98;83.18;95177.34;5011121;28;24468;-75
2022/04/21 03:25:10;;;;;;;5.00;3.47;;;;;;;3.13;82.58;95176.69;5010711;28;24586;-74
2022/04/21 03:27:37;;;;;;;7.50;3.77;;;;;;;3.06;83.65;95172.72;5009459;28;24528;-74
2022/04/21 03:30:06;;;;;;;4.97;3.45;;;;;;;3.08;83.71;95177.81;5009448;28;24989;-74
2022/04/21 03:32:33;;;;;;;9.10;3.67;;;;;;;2.88;85.78;95178.63;5009578;28;24529;-74
2022/04/21 03:35:01;;;;;;;4.75;3.97;;;;;;;3.00;85.78;95173.00;5010555;28;24849;-74
2022/04/21 03:37:28;;;;;;;5.50;3.50;;;;;;;2.80;88.19;95178.97;5010489;28;24993;-74
2022/04/21 03:39:55;;;;;;;4.22;3.38;;;;;;;2.92;87.89;95172.50;5010339;28;24482;-74
2022/04/21 03:42:23;;;;;;;3.95;3.40;;;;;;;3.08;85.70;95173.50;5010943;28;24432;-74
2022/04/21 03:44:50;;;;;;;4.10;3.70;;;;;;;3.11;86.34;95175.09;5010351;28;24466;-74
2022/04/21 03:47:17;;;;;;;5.78;3.78;;;;;;;3.19;85.00;95167.06;5010120;28;24442;-74
2022/04/21 03:49:43;;;;;;;6.82;3.80;;;;;;;3.35;84.60;95162.97;5008627;28;24506;-74
2022/04/21 03:52:11;;;;;;;5.65;3.80;;;;;;;3.25;85.00;95174.50;5008338;28;24455;-74
2022/04/21 03:54:38;;;;;;;7.20;4.00;;;;;;;3.18;83.79;95166.25;5008626;28;24436;-74
2022/04/21 03:57:05;;;;;;;4.23;3.83;;;;;;;2.78;84.42;95157.75;5007882;28;24970;-74
2022/04/21 03:59:32;;;;;;;4.80;3.88;;;;;;;2.60;82.42;95163.63;5008614;28;24532;-74
2022/04/21 04:02:02;;;;;;;4.60;3.60;;;;;;;2.80;80.79;95165.34;5005527;28;25055;-74
2022/04/21 04:04:29;;;;;;;6.13;3.70;;;;;;;2.65;79.81;95164.25;5013743;28;24535;-74
2022/04/21 04:12:30;;;;;;;5.20;4.35;;;;;;;2.23;87.58;95167.66;5013839;28;24455;-73
2022/04/21 04:14:57;;;;;;;5.60;4.53;;;;;;;2.13;89.41;95169.75;5013649;28;24511;-73
2022/04/21 04:17:23;;;;;;;4.15;3.75;;;;;;;2.27;86.92;95168.38;5014173;28;24436;-73
2022/04/21 04:19:49;;;;;;;4.75;4.07;;;;;;;2.12;89.40;95175.75;5011779;28;24827;-73
2022/04/21 04:22:16;;;;;;;5.00;4.15;;;;;;;2.26;87.16;95177.75;5011042;28;24620;-72
2022/04/21 04:24:46;;;;;;;4.55;3.80;;;;;;;2.30;84.43;95176.75;5013019;28;24978;-73
2022/04/21 04:27:13;;;;;;;5.53;4.13;;;;;;;2.02;88.46;95179.56;5013212;28;24437;-72
2022/04/21 04:29:39;;;;;;;9.60;5.07;;;;;;;1.96;87.79;95179.78;5013676;28;24902;-72
2022/04/21 04:32:07;;;;;;;14.63;6.05;;;;;;;2.04;89.43;95179.47;5012502;28;24502;-72
2022/04/21 04:34:33;;;;;;;9.07;5.33;;;;;;;1.94;91.69;95181.56;5013167;28;24538;-72
2022/04/21 04:36:59;;;;;;;6.00;5.03;;;;;;;1.99;91.81;95177.13;5013480;28;24436;-75
2022/04/21 04:39:26;;;;;;;7.22;5.00;;;;;;;2.21;88.99;95177.09;5012895;28;24471;-73
2022/04/21 04:44:37;;;;;;;8.17;5.83;;;;;;;2.39;88.78;95178.09;5013408;28;25101;-73
2022/04/21 04:47:03;;;;;;;7.53;5.03;;;;;;;2.38;89.53;95176.44;5013498;28;25034;-72
2022/04/21 04:49:30;;;;;;;10.18;5.13;;;;;;;2.54;88.36;95174.91;5013404;28;24485;-72
2022/04/21 04:51:56;;;;;;;8.43;5.03;;;;;;;2.60;86.14;95181.53;5013449;28;24475;-73
2022/04/21 04:54:23;;;;;;;6.97;4.90;;;;;;;2.50;86.22;95180.22;5013793;28;24440;-73
2022/04/21 04:56:49;;;;;;;7.72;5.38;;;;;;;2.43;88.06;95167.69;5013277;28;24432;-72
2022/04/21 04:59:17;;;;;;;8.13;5.07;;;;;;;2.45;88.91;95169.34;5012814;28;24440;-72
2022/04/21 05:01:45;;;;;;;7.30;5.60;;;;;;;2.55;89.06;95174.00;5012812;28;24475;-73
2022/04/21 05:04:14;;;;;;;6.32;5.30;;;;;;;2.72;89.49;95172.50;5012476;28;24440;-73
2022/04/21 05:06:41;;;;;;;11.70;5.78;;;;;;;2.91;88.58;95169.09;5012047;28;24442;-72
2022/04/21 05:09:10;;;;;;;6.43;5.38;;;;;;;3.02;88.70;95166.09;5012529;22;24440;-69
2022/04/21 05:11:37;;;;;;;6.93;4.93;;;;;;;3.17;87.89;95163.78;5011238;28;24853;-69
2022/04/21 05:14:03;;;;;;;6.97;4.63;;;;;;;3.31;88.28;95171.69;5012645;28;24483;-70
2022/04/21 05:16:31;;;;;;;6.03;4.50;;;;;;;3.39;87.37;95162.75;5012044;28;24861;-69
2022/04/21 05:18:58;;;;;;;9.90;4.40;;;;;;;3.45;86.88;95163.38;5012896;28;24433;-69
2022/04/21 05:21:25;;;;;;;6.65;4.18;;;;;;;3.56;86.96;95158.59;5010079;28;24841;-69
2022/04/21 05:23:57;;;;;;;5.47;4.73;;;;;;;3.50;85.16;95158.91;4993501;28;24463;-69
2022/04/21 05:26:25;;;;;;;8.32;4.10;;;;;;;3.66;86.19;95162.41;5002909;28;25071;-70
2022/04/21 05:28:52;;;;;;;8.27;4.53;;;;;;;3.48;85.36;95161.50;4998402;28;24520;-69
2022/04/21 05:31:18;;;;;;;4.97;4.22;;;;;;;3.47;86.18;95162.41;5009814;28;24984;-69
2022/04/21 05:33:47;;;;;;;5.93;4.20;;;;;;;3.51;87.04;95163.94;5007181;28;24441;-70
2022/04/21 05:36:15;;;;;;;6.22;4.10;;;;;;;3.83;86.71;95165.03;4993061;28;24496;-70
2022/04/21 05:38:42;;;;;;;4.72;4.13;;;;;;;4.27;89.20;95169.00;5008089;28;24432;-68
2022/04/21 05:41:09;;;;;;;6.78;5.15;;;;;;;4.37;89.96;95165.06;4995887;28;24433;-68
2022/04/21 05:43:40;;;;;;;8.70;5.13;;;;;;;4.28;90.48;95158.66;4992832;28;24834;-69
2022/04/21 05:46:08;;;;;;;10.00;6.05;;;;;;;4.40;90.51;95154.66;4999517;28;25012;-69
2022/04/21 05:48:35;;;;;;;8.80;6.00;;;;;;;4.53;89.53;95148.06;5000683;28;24468;-69
2022/04/21 05:51:04;;;;;;;6.22;5.30;;;;;;;4.69;89.17;95157.56;5006763;28;24459;-69
2022/04/21 05:53:35;;;;;;;7.25;5.45;;;;;;;4.77;88.98;95145.19;4993696;28;24997;-69
2022/04/21 05:56:02;;;;;;;7.22;6.05;;;;;;;5.09;87.98;95141.81;4994793;28;24467;-69
2022/04/21 05:58:29;;;;;;;7.43;5.63;;;;;;;5.18;89.22;95142.25;5011264;28;24459;-68
2022/04/21 06:00:55;;;;;;;6.40;5.80;;;;;;;5.24;90.73;95134.25;4998740;28;24449;-65
2022/04/21 06:03:22;;;;;;;8.70;6.03;;;;;;;5.10;90.71;95140.91;4990421;28;25004;-71
2022/04/21 06:05:48;;;;;;;6.25;5.65;;;;;;;5.33;89.85;95137.13;4993340;28;24436;-71
2022/04/21 06:08:16;;;;;;;7.07;5.90;;;;;;;5.48;93.38;95134.66;5002440;28;24532;-70
2022/04/21 06:10:43;;;;;;;7.05;5.72;;;;;;;5.59;94.42;95135.75;4991783;28;24440;-70
2022/04/21 06:13:09;;;;;;;7.80;5.47;;;;;;;5.71;93.53;95134.28;4991852;28;24488;-71
2022/04/21 06:15:36;;;;;;;8.20;5.80;;;;;;;5.88;93.77;95132.53;4992370;28;24839;-71
2022/04/21 06:18:02;;;;;;;10.90;8.82;;;;;;;5.53;89.35;95133.53;4998019;28;24440;-71
2022/04/21 06:20:29;;;;;;;8.57;6.78;;;;;;;5.77;89.84;95127.97;5020793;28;25006;-70
2022/04/21 06:22:56;;;;;;;7.88;6.10;;;;;;;5.89;88.25;95127.31;5019157;28;24432;-71
2022/04/21 06:25:24;;;;;;;5.63;5.03;;;;;;;6.12;86.46;95131.25;5017165;28;25023;-70
2022/04/21 06:27:52;;;;;;;7.68;5.20;;;;;;;6.28;85.03;95131.19;5016655;28;24435;-71
2022/04/21 06:30:19;;;;;;;6.07;4.95;;;;;;;6.52;81.40;95129.81;5019967;28;24547;-70
2022/04/21 06:32:45;;;;;;;5.32;4.80;;;;;;;6.74;78.44;95136.28;5018095;28;24484;-69
2022/04/21 06:35:12;;;;;;;6.05;4.90;;;;;;;6.63;78.40;95142.06;5026424;28;24490;-69
2022/04/21 06:37:39;;;;;;;7.45;4.80;;;;;;;6.69;78.35;95141.72;5016543;28;24515;-69
2022/04/21 06:40:07;;;;;;;8.38;5.55;;;;;;;6.98;79.90;95131.47;5024613;28;24443;-70
2022/04/21 06:42:36;;;;;;;9.88;5.75;;;;;;;7.28;79.16;95136.56;5018389;28;24482;-68
2022/04/21 06:48:05;;;;;;;13.17;6.97;;;;;;;7.77;80.55;95141.28;5018380;28;24431;-70
2022/04/21 06:50:34;;;;;;;8.53;7.60;;;;;;;8.11;81.51;95134.84;5020368;28;24448;-70
2022/04/21 06:53:01;;;;;;;9.60;7.97;;;;;;;8.49;80.69;95141.94;5011573;28;24850;-70
2022/04/21 06:55:28;;;;;;;9.57;8.57;;;;;;;8.98;78.86;95136.16;5023922;28;20778;-69
2022/04/21 06:57:56;;;;;;;9.40;8.00;;;;;;;9.02;76.21;95136.78;5027046;28;24842;-69
2022/04/21 07:00:25;;;;;;;11.18;8.75;;;;;;;9.34;73.35;95137.19;5012592;28;21421;-69
2022/04/21 07:02:54;;;;;;;11.32;9.13;;;;;;;9.13;71.37;95137.72;5018075;28;20811;-69
2022/04/21 07:05:22;;;;;;;15.40;10.05;;;;;;;9.32;74.22;95134.72;5025291;28;20828;-70
2022/04/21 07:07:49;;;;;;;11.48;10.05;;;;;;;9.44;77.97;95136.44;5010062;28;24908;-70
2022/04/21 07:10:16;;;;;;;10.63;8.38;;;;;;;9.53;73.05;95141.91;5009493;28;24445;-70
2022/04/21 07:12:43;;;;;;;9.40;8.50;;;;;;;9.43;70.57;95137.38;5016574;28;24544;-70
2022/04/21 07:15:12;;;;;;;13.48;8.57;;;;;;;9.56;71.91;95141.72;5028410;28;24424;-70
2022/04/21 07:17:39;;;;;;;10.75;8.65;;;;;;;9.63;69.12;95143.75;5009704;28;24428;-71
2022/04/21 07:20:07;;;;;;;9.00;8.10;;;;;;;9.72;70.35;95147.50;5017944;28;24439;-71
2022/04/21 07:22:34;;;;;;;12.05;9.57;;;;;;;9.89;74.57;95141.13;5012561;28;24443;-70
2022/04/21 07:25:02;;;;;;;9.07;8.23;;;;;;;9.77;67.99;95137.66;5012684;28;24435;-69
2022/04/21 07:27:29;;;;;;;11.50;8.85;;;;;;;9.73;68.30;95135.38;5029913;28;20769;-69
2022/04/21 07:29:56;;;;;;;10.38;8.93;;;;;;;9.82;69.80;95135.56;5025333;28;24446;-69
2022/04/21 07:32:24;;;;;;;10.90;9.10;;;;;;;10.02;69.46;95128.19;5029701;28;24542;-70
2022/04/21 07:34:50;;;;;;;26.60;8.57;;;;;;;10.12;65.94;95127.41;5018584;28;24664;-70
2022/04/21 07:37:17;;;;;;;15.90;9.25;;;;;;;10.22;68.63;95130.16;5020769;28;24440;-70
2022/04/21 07:39:43;;;;;;;8.93;7.97;;;;;;;10.16;66.14;95126.25;5010399;28;24468;-69
2022/04/21 07:42:11;;;;;;;12.57;7.53;;;;;;;10.33;63.15;95127.66;5015182;28;24490;-70
2022/04/21 07:44:38;;;;;;;10.68;8.00;;;;;;;10.64;63.38;95118.50;5026013;28;21180;-70
2022/04/21 07:47:06;;;;;;;12.10;8.85;;;;;;;10.53;68.99;95123.63;5010759;28;20773;-69
2022/04/21 07:49:46;;;;;;;9.95;8.30;;;;;;;10.72;62.31;95123.13;5013191;28;20837;-69
2022/04/21 07:54:56;;;;;;;9.75;8.75;;;;;;;10.52;60.91;95132.31;5015595;28;20645;-69
2022/04/21 07:57:23;;;;;;;8.80;7.97;;;;;;;11.08;61.83;95129.06;5020706;28;24440;-69
2022/04/21 07:59:49;;;;;;;18.88;7.78;;;;;;;11.22;57.48;95122.88;5010489;28;24592;-69
2022/04/21 08:02:16;;;;;;;8.67;7.37;;;;;;;11.13;56.16;95119.22;5025468;28;24439;-70
2022/04/21 08:04:44;;;;;;;15.17;8.53;;;;;;;11.51;59.47;95115.47;5030081;28;24519;-70
2022/04/21 08:07:11;;;;;;;11.50;8.65;;;;;;;11.65;60.53;95112.63;5029645;28;21118;-70
2022/04/21 08:09:37;;;;;;;8.07;7.28;;;;;;;11.81;63.08;95114.84;5030064;28;24435;-70
2022/04/21 08:12:05;;;;;;;10.37;8.00;;;;;;;11.71;57.00;95119.09;5029887;28;24444;-69
2022/04/21 08:14:31;;;;;;;9.00;8.10;;;;;;;11.71;58.93;95116.50;5030442;28;20755;-69
2022/04/21 08:16:57;;;;;;;9.65;7.82;;;;;;;11.80;55.58;95121.00;5030080;28;20761;-70
2022/04/21 08:19:24;;;;;;;9.25;8.07;;;;;;;12.03;55.84;95127.00;5029840;28;25169;-70
2022/04/21 08:21:52;;;;;;;10.40;7.65;;;;;;;12.23;56.82;95123.63;5021483;28;24464;-71
2022/04/21 08:32:41;;;;;;;7.72;6.85;;;;;;;12.23;54.82;95133.22;5014700;28;20668;-69
2022/04/21 08:35:09;;;;;;;8.27;7.47;;;;;;;12.11;54.91;95127.22;5019328;28;20772;-70
2022/04/21 08:37:37;;;;;;;7.80;6.93;;;;;;;12.61;52.94;95127.56;5017092;28;25142;-69
2022/04/21 08:40:06;;;;;;;9.32;7.60;;;;;;;12.74;51.20;95125.59;5025245;28;24984;-70
2022/04/21 08:42:36;;;;;;;16.98;7.80;;;;;;;12.68;54.86;95127.84;5008496;28;24799;-70
2022/04/21 08:45:04;;;;;;;8.60;7.43;;;;;;;12.43;51.19;95127.25;5017267;28;24883;-70
2022/04/21 08:47:31;;;;;;;10.75;7.82;;;;;;;12.71;58.12;95115.44;5018584;28;20775;-70
2022/04/21 08:50:03;;;;;;;9.45;7.43;;;;;;;12.54;55.18;95123.81;5029104;28;20808;-70
2022/04/21 08:52:30;;;;;;;13.32;8.48;;;;;;;12.40;56.97;95124.91;5016634;28;20960;-69
2022/04/21 08:54:58;;;;;;;11.82;8.93;;;;;;;12.31;56.01;95118.69;5030760;28;24981;-71
2022/04/21 08:57:25;;;;;;;9.40;8.40;;;;;;;12.41;52.50;95120.53;5026049;28;20872;-69
2022/04/21 08:59:51;;;;;;;11.75;8.90;;;;;;;12.52;55.86;95125.69;5014926;28;24495;-69
2022/04/21 09:02:19;;;;;;;9.57;7.72;;;;;;;12.54;51.74;95132.41;5029542;28;20871;-69
2022/04/21 09:04:45;;;;;;;9.75;7.85;;;;;;;12.82;56.10;95127.56;5017797;28;24474;-69
2022/04/21 09:07:17;;;;;;;9.48;8.52;;;;;;;12.80;53.61;95121.69;5032837;28;24440;-70
2022/04/21 09:10:02;;;;;;;9.10;8.20;;;;;;;12.82;53.00;95122.38;5020204;28;24586;-69
2022/04/21 09:12:29;;;;;;;8.93;8.13;;;;;;;13.05;51.86;95115.25;5013962;28;24454;-69
2022/04/21 09:14:57;;;;;;;9.18;8.13;;;;;;;13.15;51.42;95123.13;5013244;28;24432;-70
2022/04/21 09:17:24;;;;;;;13.00;9.25;;;;;;;13.35;54.25;95113.69;5028879;28;24454;-69
2022/04/21 09:19:57;;;;;;;9.80;8.60;;;;;;;13.51;51.37;95119.25;5022033;28;24440;-69
2022/04/21 09:22:23;;;;;;;13.30;8.55;;;;;;;13.69;50.18;95124.69;5012433;28;24535;-69
2022/04/21 09:24:52;;;;;;;9.43;8.52;;;;;;;13.70;51.82;95116.72;5026319;28;24447;-67
2022/04/21 09:27:20;;;;;;;12.10;8.77;;;;;;;13.22;51.94;95116.47;5012516;28;24436;-67
2022/04/21 09:29:46;;;;;;;10.65;8.68;;;;;;;13.65;53.91;95113.72;5025607;28;24436;-66
2022/04/21 09:32:16;;;;;;;9.83;8.30;;;;;;;13.66;53.06;95104.13;5030638;28;24506;-66
2022/04/21 09:34:48;;;;;;;8.27;7.47;;;;;;;13.42;51.59;95105.28;5032551;28;24438;-67
2022/04/21 09:37:18;;;;;;;10.43;7.45;;;;;;;13.37;51.45;95098.78;5017695;28;24987;-66
2022/04/21 09:39:50;;;;;;;12.63;7.75;;;;;;;13.44;51.20;95107.72;5015171;28;24436;-66
2022/04/21 09:42:25;;;;;;;10.40;7.65;;;;;;;13.57;50.76;95103.13;5026020;28;24429;-69
2022/04/21 09:47:35;;;;;;;8.07;7.30;;;;;;;13.64;49.44;95085.19;5012344;28;24424;-69
2022/04/21 09:50:12;;;;;;;10.95;8.32;;;;;;;13.88;51.34;95087.47;5028541;28;24518;-69
2022/04/21 09:52:39;;;;;;;8.35;7.50;;;;;;;13.96;50.14;95087.63;5022375;28;24538;-69
2022/04/21 09:55:20;;;;;;;10.27;8.43;;;;;;;13.93;52.71;95086.13;5032144;28;24416;-69
2022/04/21 09:57:51;;;;;;;9.00;7.68;;;;;;;14.00;55.38;95076.81;5032120;28;25451;-69
2022/04/21 10:00:21;;;;;;;8.60;7.55;;;;;;;13.96;51.78;95077.22;5032218;28;24516;-69
2022/04/21 10:02:49;;;;;;;9.70;8.18;;;;;;;14.16;55.61;95081.50;5031812;28;24459;-69
2022/04/21 10:05:17;;;;;;;11.60;8.48;;;;;;;13.98;50.68;95073.53;5032145;28;24425;-69
2022/04/21 10:07:45;;;;;;;12.65;8.15;;;;;;;13.94;47.40;95074.78;5031922;28;24424;-69
2022/04/21 10:10:12;;;;;;;8.45;7.57;;;;;;;14.33;51.65;95071.38;5031908;28;24435;-69
2022/04/21 10:12:39;;;;;;;9.20;7.87;;;;;;;13.55;46.06;95066.00;5031453;28;24548;-69
2022/04/21 10:15:09;;;;;;;10.33;7.03;;;;;;;14.32;50.00;95064.53;5031859;28;25106;-69
2022/04/21 10:17:35;;;;;;;11.20;7.35;;;;;;;14.28;49.47;95061.38;5031937;28;25012;-69
2022/04/21 10:20:02;;;;;;;9.82;7.28;;;;;;;13.91;51.67;95063.78;5031712;28;24428;-69
2022/04/21 10:22:29;;;;;;;8.63;7.50;;;;;;;14.02;47.74;95059.28;5031449;28;24424;-69
2022/04/21 10:24:57;;;;;;;8.55;7.55;;;;;;;13.83;49.67;95058.41;5031885;28;24473;-69
2022/04/21 10:27:37;;;;;;;10.43;7.20;;;;;;;13.88;49.90;95053.66;5031812;28;24511;-69
2022/04/21 10:30:13;;;;;;;10.80;7.47;;;;;;;13.86;52.36;95052.94;5031597;28;24423;-69
2022/04/21 10:32:50;;;;;;;11.00;8.30;;;;;;;13.93;55.07;95052.28;5031306;28;24833;-69
2022/04/21 10:35:35;;;;;;;10.00;7.57;;;;;;;13.21;48.57;95048.06;5031861;28;24416;-69
2022/04/21 10:38:22;;;;;;;7.72;7.03;;;;;;;13.11;50.75;95034.16;5018675;28;24436;-70
2022/04/21 10:40:57;;;;;;;8.38;7.55;;;;;;;13.62;49.17;95029.88;5031339;28;24477;-69
2022/04/21 10:43:24;;;;;;;9.68;8.23;;;;;;;13.92;54.52;95031.59;5031065;28;24424;-69
2022/04/21 10:46:05;;;;;;;10.88;8.43;;;;;;;14.46;57.28;95030.25;5031219;28;25026;-69
2022/04/21 10:48:41;;;;;;;11.20;8.40;;;;;;;14.15;53.60;95032.97;5031218;28;24527;-69
2022/04/21 10:51:08;;;;;;;9.65;8.10;;;;;;;14.20;54.36;95022.16;5030997;28;24459;-69
2022/04/21 10:59:29;;;;;;;11.03;7.93;;;;;;;14.41;49.92;95016.81;5029386;28;24439;-69
2022/04/21 11:02:11;;;;;;;12.32;8.55;;;;;;;14.39;52.14;95016.16;5030761;28;24519;-69
2022/04/21 11:04:38;;;;;;;11.40;8.32;;;;;;;14.19;55.79;95020.50;5031295;28;24837;-69
2022/04/21 11:07:11;;;;;;;10.15;9.15;;;;;;;13.64;49.37;95018.38;5030307;28;24431;-69
2022/04/21 11:09:48;;;;;;;12.63;9.23;;;;;;;12.94;50.90;95004.41;5029703;28;24436;-69
2022/04/21 11:12:16;;;;;;;10.05;8.23;;;;;;;14.06;54.55;95012.16;5030465;28;24431;-69
2022/04/21 11:14:43;;;;;;;10.15;8.20;;;;;;;13.88;50.22;95010.22;5030602;28;24813;-69
2022/04/21 11:17:11;;;;;;;11.02;8.32;;;;;;;14.14;52.02;95002.69;5030931;28;24424;-69
2022/04/21 11:19:44;;;;;;;10.65;9.07;;;;;;;14.29;55.05;95009.13;5030753;28;24427;-69
2022/04/21 11:22:11;;;;;;;12.47;8.27;;;;;;;14.41;52.26;94994.19;5030487;28;25033;-69
2022/04/21 11:25:05;;;;;;;10.10;7.65;;;;;;;14.46;55.71;94986.78;5030540;28;24423;-69
2022/04/21 11:27:37;;;;;;;7.90;7.20;;;;;;;14.66;51.04;94979.78;5030802;28;24419;-70
2022/04/21 11:30:06;;;;;;;9.80;7.43;;;;;;;14.27;49.15;94981.56;5030631;28;24536;-69
2022/04/21 11:32:34;;;;;;;7.82;6.95;;;;;;;14.43;55.10;94981.03;5030363;28;24423;-69
2022/04/21 11:35:03;;;;;;;7.72;7.03;;;;;;;14.34;54.85;94979.25;5030904;28;24423;-69
2022/04/21 11:37:50;;;;;;;8.40;7.55;;;;;;;14.55;59.20;94976.53;5030310;28;24506;-69
2022/04/21 11:40:25;;;;;;;6.40;5.80;;;;;;;14.36;53.37;94978.16;5030487;28;24428;-69
2022/04/21 11:42:52;;;;;;;6.90;6.07;;;;;;;14.22;51.16;94976.78;5030283;28;24817;-71
2022/04/21 11:45:20;;;;;;;7.07;5.83;;;;;;;14.46;53.13;94965.94;5029956;28;24424;-70
2022/04/21 11:47:48;;;;;;;5.97;5.40;;;;;;;14.58;52.38;94964.03;5019317;28;24805;-70
2022/04/21 11:50:22;;;;;;;7.07;5.70;;;;;;;14.54;54.15;94969.69;5020588;28;24428;-70
2022/04/21 11:52:52;;;;;;;7.38;6.68;;;;;;;14.57;56.84;94967.59;5019300;28;24459;-70
2022/04/21 11:55:20;;;;;;;6.80;6.10;;;;;;;14.15;55.12;94973.09;5018394;28;24836;-70
2022/04/21 11:57:46;;;;;;;7.15;6.40;;;;;;;14.17;52.97;94973.78;5018149;28;24440;-70
2022/04/21 12:00:15;;;;;;;7.43;6.70;;;;;;;14.10;51.34;94967.47;5018335;28;24447;-70
2022/04/21 12:08:13;;;;;;;6.60;5.72;;;;;;;13.96;49.49;94960.06;5014792;28;24431;-71
2022/04/21 12:10:40;;;;;;;7.70;5.90;;;;;;;14.40;58.43;94953.47;5018392;28;24468;-73
2022/04/21 12:13:08;;;;;;;6.13;5.20;;;;;;;14.17;50.49;94958.16;5018211;28;24989;-69
2022/04/21 12:15:38;;;;;;;7.10;5.93;;;;;;;14.52;54.67;94944.56;5020234;28;24899;-70
2022/04/21 12:18:05;;;;;;;7.72;5.10;;;;;;;14.55;52.85;94946.06;5019411;28;24432;-70
2022/04/21 12:20:33;;;;;;;5.82;5.32;;;;;;;14.07;50.72;94946.09;5017898;28;24540;-69
2022/04/21 12:23:00;;;;;;;5.30;4.80;;;;;;;14.66;55.98;94945.09;5021628;28;24459;-70
2022/04/21 12:25:30;;;;;;;7.30;5.17;;;;;;;14.68;56.35;94935.34;5024425;28;24436;-69
2022/04/21 12:28:02;;;;;;;5.10;4.60;;;;;;;14.85;52.81;94942.41;5021892;28;25025;-69
2022/04/21 12:30:29;;;;;;;5.70;5.15;;;;;;;14.53;51.18;94934.97;5030611;28;24443;-69